CST,Max TemperatureF,Mean TemperatureF,Min TemperatureF,Max Dew PointF,MeanDew PointF,Min DewpointF,Max Humidity, Mean Humidity, Min Humidity, Max Sea Level PressureIn, Mean Sea Level PressureIn, Min Sea Level PressureIn, Max VisibilityMiles, Mean VisibilityMiles, Min VisibilityMiles, Max Wind SpeedMPH, Mean Wind SpeedMPH, Max Gust SpeedMPH,PrecipitationIn, CloudCover, Events, WindDirDegrees
2012-11-1,61,47,33,38,29,20,69,52,35,29.97,29.92,29.84,10,10,10,15,5,23,0.00,4,,303
2012-11-2,50,41,31,30,28,25,82,59,36,30.13,30.07,29.95,10,10,10,12,6,15,0.00,0,,46
2012-11-3,46,38,30,35,32,28,92,75,58,30.24,30.18,30.11,10,10,8,15,7,21,0.03,6,Rain,86
2012-11-4,49,39,28,36,30,27,96,77,58,30.28,30.24,30.18,10,6,2,7,1,8,0.00,5,,58
2012-11-5,48,41,34,33,31,29,92,73,53,30.20,30.16,30.13,10,10,6,13,6,16,0.00,7,,88
2012-11-6,43,40,37,41,37,29,96,83,70,30.11,29.95,29.88,10,5,2,14,5,17,0.25,8,Rain,205
2012-11-7,44,41,38,39,37,35,93,85,76,30.20,30.06,29.90,10,8,5,9,4,15,0.01,8,Rain,339
2012-11-8,51,45,39,38,36,32,85,72,59,30.23,30.16,30.07,10,10,6,15,7,18,0.00,4,,191
2012-11-9,60,50,40,52,44,36,89,75,60,30.08,29.99,29.92,10,9,6,14,6,17,0.00,2,,146
2012-11-10,72,63,54,54,50,46,86,68,49,29.96,29.90,29.83,10,10,10,25,16,31,T,2,Rain,182
2012-11-11,66,50,34,54,45,30,96,80,63,30.05,29.89,29.72,10,8,1,37,17,52,0.51,6,Rain-Snow,251
2012-11-12,39,32,25,28,21,16,89,69,48,30.42,30.25,30.08,10,10,10,24,11,31,0.00,2,,275
2012-11-13,43,33,23,25,21,18,88,64,39,30.55,30.50,30.43,10,10,10,7,3,9,0.00,0,,208
2012-11-14,47,39,30,28,26,24,78,62,45,30.52,30.46,30.39,10,10,10,14,6,17,0.00,0,,162
2012-11-15,49,39,29,30,27,25,85,64,42,30.41,30.38,30.34,10,10,7,8,3,9,0.00,0,,182
2012-11-16,55,42,29,36,30,25,85,66,46,30.48,30.45,30.39,10,9,6,10,3,13,0.00,0,,162
2012-11-17,55,42,29,34,31,26,85,63,41,30.55,30.48,30.42,10,8,5,12,5,16,0.00,0,,147
2012-11-18,57,45,33,36,33,29,82,61,39,30.43,30.37,30.31,10,8,5,12,4,15,0.00,0,,159
2012-11-19,52,47,41,43,39,34,80,72,63,30.30,30.20,30.11,10,10,8,12,7,15,0.01,6,,178
2012-11-20,62,52,42,48,44,40,100,80,60,30.20,30.14,30.08,10,7,0,8,2,10,0.00,5,Fog,299
2012-11-21,50,44,37,46,43,37,100,93,86,30.27,30.20,30.12,4,2,0,10,5,14,0.00,3,Fog,188
2012-11-22,62,52,41,50,43,32,96,74,52,30.10,29.98,29.83,10,6,2,22,12,31,0.01,3,Rain,196
2012-11-23,41,32,23,32,20,14,76,62,47,30.32,30.21,30.06,10,10,10,26,13,37,0.00,1,,298
2012-11-24,32,25,18,22,18,14,84,72,59,30.34,30.22,30.00,10,10,10,15,6,20,0.00,1,,240
2012-11-25,47,38,29,27,25,22,72,59,45,30.12,29.97,29.90,10,10,10,14,5,18,0.00,3,,263
2012-11-26,36,30,24,25,20,15,74,63,51,30.43,30.29,30.11,10,10,9,13,6,16,0.00,5,,5
2012-11-27,35,26,16,17,13,10,80,59,38,30.49,30.39,30.32,10,10,10,9,4,12,0.00,0,,258
2012-11-28,46,34,22,27,22,17,81,62,42,30.45,30.37,30.30,10,10,7,12,3,15,0.00,1,,201
2012-11-29,52,40,28,35,30,24,85,70,54,30.29,30.17,30.06,10,9,6,18,8,25,0.00,0,,174
2012-11-30,57,46,34,37,34,30,89,70,50,30.12,30.08,30.05,10,10,7,10,5,13,0.00,1,,177